Terminal Aerodrome Forecast
Issued by NWS

Home | Current Version | Previous Version | Text Only | Print | Product List | Glossary On
Versions: 1 2 3 4 5 6 7 8 9 10 11 12
000
FTUS41 KLWX 252300
TAFMTN
TAF
KMTN 252338Z 2600/2624 25006KT P6SM FEW250
     FM261300 29010KT P6SM SKC
     FM261600 29015G25KT P6SM FEW250
     FM262300 30010KT P6SM SKC
      AMD NOT SKED 2602/2612=

USA.gov is the U.S. government's official web portal to all federal, state and local government web resources and services.